sensor_id;sensor_type;location;lat;lon;timestamp;P1;durP1;ratioP1;P2;durP2;ratioP2
26181;SDS011;13927;51.534;11.866;2024-03-07T00:00:05;24.80;;;12.27;;
26181;SDS011;13927;51.534;11.866;2024-03-07T00:02:40;21.70;;;11.50;;
26181;SDS011;13927;51.534;11.866;2024-03-07T00:05:07;21.60;;;10.95;;
26181;SDS011;13927;51.534;11.866;2024-03-07T00:07:33;20.60;;;11.07;;
26181;SDS011;13927;51.534;11.866;2024-03-07T00:10:03;22.30;;;11.52;;
26181;SDS011;13927;51.534;11.866;2024-03-07T00:12:29;24.35;;;12.23;;
26181;SDS011;13927;51.534;11.866;2024-03-07T00:15:00;26.30;;;11.90;;
26181;SDS011;13927;51.534;11.866;2024-03-07T00:17:30;24.17;;;11.63;;
26181;SDS011;13927;51.534;11.866;2024-03-07T00:19:56;27.25;;;12.00;;
26181;SDS011;13927;51.534;11.866;2024-03-07T00:22:22;29.77;;;12.40;;
26181;SDS011;13927;51.534;11.866;2024-03-07T00:24:49;27.75;;;12.73;;
26181;SDS011;13927;51.534;11.866;2024-03-07T00:27:14;27.23;;;13.77;;
26181;SDS011;13927;51.534;11.866;2024-03-07T00:29:40;28.33;;;13.63;;
26181;SDS011;13927;51.534;11.866;2024-03-07T00:32:06;32.58;;;14.02;;
26181;SDS011;13927;51.534;11.866;2024-03-07T00:34:32;28.05;;;11.98;;
26181;SDS011;13927;51.534;11.866;2024-03-07T00:36:58;27.23;;;12.80;;
26181;SDS011;13927;51.534;11.866;2024-03-07T00:39:25;28.38;;;14.70;;
26181;SDS011;13927;51.534;11.866;2024-03-07T00:41:51;28.98;;;14.13;;
26181;SDS011;13927;51.534;11.866;2024-03-07T00:44:17;30.48;;;13.82;;
26181;SDS011;13927;51.534;11.866;2024-03-07T00:46:45;27.85;;;13.05;;
26181;SDS011;13927;51.534;11.866;2024-03-07T00:49:11;28.83;;;12.75;;
26181;SDS011;13927;51.534;11.866;2024-03-07T00:51:37;32.47;;;12.75;;
26181;SDS011;13927;51.534;11.866;2024-03-07T00:54:04;29.45;;;13.35;;
26181;SDS011;13927;51.534;11.866;2024-03-07T00:56:31;32.85;;;13.93;;
26181;SDS011;13927;51.534;11.866;2024-03-07T00:58:56;27.95;;;13.18;;
26181;SDS011;13927;51.534;11.866;2024-03-07T01:01:25;26.25;;;12.77;;
26181;SDS011;13927;51.534;11.866;2024-03-07T01:03:51;24.77;;;12.65;;
26181;SDS011;13927;51.534;11.866;2024-03-07T01:06:16;33.20;;;14.45;;
26181;SDS011;13927;51.534;11.866;2024-03-07T01:08:42;28.55;;;14.05;;
26181;SDS011;13927;51.534;11.866;2024-03-07T01:11:08;30.92;;;13.63;;
26181;SDS011;13927;51.534;11.866;2024-03-07T01:13:37;30.42;;;13.30;;
26181;SDS011;13927;51.534;11.866;2024-03-07T01:16:04;30.77;;;14.35;;
26181;SDS011;13927;51.534;11.866;2024-03-07T01:18:30;28.30;;;15.13;;
26181;SDS011;13927;51.534;11.866;2024-03-07T01:20:59;35.42;;;14.35;;
26181;SDS011;13927;51.534;11.866;2024-03-07T01:23:26;33.50;;;14.02;;
26181;SDS011;13927;51.534;11.866;2024-03-07T01:25:55;30.83;;;14.65;;
26181;SDS011;13927;51.534;11.866;2024-03-07T01:28:25;32.70;;;15.68;;
26181;SDS011;13927;51.534;11.866;2024-03-07T01:30:54;31.42;;;14.55;;
26181;SDS011;13927;51.534;11.866;2024-03-07T01:33:24;30.02;;;14.68;;
26181;SDS011;13927;51.534;11.866;2024-03-07T01:35:49;29.25;;;12.63;;
26181;SDS011;13927;51.534;11.866;2024-03-07T01:38:15;27.58;;;13.27;;
26181;SDS011;13927;51.534;11.866;2024-03-07T01:40:45;36.30;;;16.52;;
26181;SDS011;13927;51.534;11.866;2024-03-07T01:43:20;34.92;;;14.73;;
26181;SDS011;13927;51.534;11.866;2024-03-07T01:45:46;26.02;;;12.48;;
26181;SDS011;13927;51.534;11.866;2024-03-07T01:48:12;28.63;;;12.88;;
26181;SDS011;13927;51.534;11.866;2024-03-07T01:50:49;28.73;;;13.35;;
26181;SDS011;13927;51.534;11.866;2024-03-07T01:53:15;26.08;;;13.07;;
26181;SDS011;13927;51.534;11.866;2024-03-07T01:55:41;26.38;;;14.15;;
26181;SDS011;13927;51.534;11.866;2024-03-07T01:58:09;29.90;;;12.82;;
26181;SDS011;13927;51.534;11.866;2024-03-07T02:00:43;28.15;;;12.85;;
26181;SDS011;13927;51.534;11.866;2024-03-07T02:03:08;30.55;;;14.32;;
26181;SDS011;13927;51.534;11.866;2024-03-07T02:05:34;28.40;;;13.57;;
26181;SDS011;13927;51.534;11.866;2024-03-07T02:08:00;26.83;;;13.77;;
26181;SDS011;13927;51.534;11.866;2024-03-07T02:10:29;34.72;;;13.60;;
26181;SDS011;13927;51.534;11.866;2024-03-07T02:12:55;28.10;;;13.25;;
26181;SDS011;13927;51.534;11.866;2024-03-07T02:15:20;27.27;;;14.32;;
26181;SDS011;13927;51.534;11.866;2024-03-07T02:17:46;32.72;;;14.43;;
26181;SDS011;13927;51.534;11.866;2024-03-07T02:20:12;29.73;;;14.40;;
26181;SDS011;13927;51.534;11.866;2024-03-07T02:22:38;27.48;;;14.48;;
26181;SDS011;13927;51.534;11.866;2024-03-07T02:25:04;28.67;;;12.23;;
26181;SDS011;13927;51.534;11.866;2024-03-07T02:27:31;27.92;;;13.43;;
26181;SDS011;13927;51.534;11.866;2024-03-07T02:29:57;32.50;;;13.85;;
26181;SDS011;13927;51.534;11.866;2024-03-07T02:32:22;26.92;;;13.73;;
26181;SDS011;13927;51.534;11.866;2024-03-07T02:34:48;27.98;;;14.18;;
26181;SDS011;13927;51.534;11.866;2024-03-07T02:37:17;33.60;;;14.80;;
26181;SDS011;13927;51.534;11.866;2024-03-07T02:39:51;30.90;;;14.85;;
26181;SDS011;13927;51.534;11.866;2024-03-07T02:42:17;28.65;;;15.02;;
26181;SDS011;13927;51.534;11.866;2024-03-07T02:44:43;25.05;;;13.77;;
26181;SDS011;13927;51.534;11.866;2024-03-07T02:47:09;29.10;;;13.98;;
26181;SDS011;13927;51.534;11.866;2024-03-07T02:49:35;32.33;;;16.42;;
26181;SDS011;13927;51.534;11.866;2024-03-07T02:52:00;30.58;;;14.60;;
26181;SDS011;13927;51.534;11.866;2024-03-07T02:54:26;26.20;;;13.02;;
26181;SDS011;13927;51.534;11.866;2024-03-07T02:56:52;33.60;;;15.40;;
26181;SDS011;13927;51.534;11.866;2024-03-07T02:59:18;29.42;;;14.13;;
26181;SDS011;13927;51.534;11.866;2024-03-07T03:01:43;35.08;;;14.50;;
26181;SDS011;13927;51.534;11.866;2024-03-07T03:04:09;30.02;;;15.00;;
26181;SDS011;13927;51.534;11.866;2024-03-07T03:06:35;27.27;;;13.50;;
26181;SDS011;13927;51.534;11.866;2024-03-07T03:09:01;30.27;;;13.57;;
26181;SDS011;13927;51.534;11.866;2024-03-07T03:11:29;36.20;;;14.55;;
26181;SDS011;13927;51.534;11.866;2024-03-07T03:13:55;31.20;;;14.50;;
26181;SDS011;13927;51.534;11.866;2024-03-07T03:16:21;33.47;;;16.48;;
26181;SDS011;13927;51.534;11.866;2024-03-07T03:18:46;30.33;;;15.45;;
26181;SDS011;13927;51.534;11.866;2024-03-07T03:21:13;33.92;;;15.65;;
26181;SDS011;13927;51.534;11.866;2024-03-07T03:23:40;38.35;;;16.95;;
26181;SDS011;13927;51.534;11.866;2024-03-07T03:26:06;29.63;;;15.25;;
26181;SDS011;13927;51.534;11.866;2024-03-07T03:28:31;33.97;;;16.38;;
26181;SDS011;13927;51.534;11.866;2024-03-07T03:30:57;34.60;;;15.90;;
26181;SDS011;13927;51.534;11.866;2024-03-07T03:33:23;28.92;;;15.00;;
26181;SDS011;13927;51.534;11.866;2024-03-07T03:35:48;30.15;;;14.93;;
26181;SDS011;13927;51.534;11.866;2024-03-07T03:38:14;35.35;;;16.35;;
26181;SDS011;13927;51.534;11.866;2024-03-07T03:40:41;34.00;;;16.70;;
26181;SDS011;13927;51.534;11.866;2024-03-07T03:43:06;36.05;;;16.95;;
26181;SDS011;13927;51.534;11.866;2024-03-07T03:45:32;35.33;;;16.05;;
26181;SDS011;13927;51.534;11.866;2024-03-07T03:47:59;32.65;;;15.57;;
26181;SDS011;13927;51.534;11.866;2024-03-07T03:50:28;34.88;;;15.68;;
26181;SDS011;13927;51.534;11.866;2024-03-07T03:52:53;35.00;;;14.75;;
26181;SDS011;13927;51.534;11.866;2024-03-07T03:55:22;35.15;;;15.52;;
26181;SDS011;13927;51.534;11.866;2024-03-07T03:57:48;35.03;;;14.90;;
26181;SDS011;13927;51.534;11.866;2024-03-07T04:00:14;36.88;;;14.73;;
26181;SDS011;13927;51.534;11.866;2024-03-07T04:05:07;33.97;;;15.48;;
26181;SDS011;13927;51.534;11.866;2024-03-07T04:07:34;35.28;;;16.58;;
26181;SDS011;13927;51.534;11.866;2024-03-07T04:10:01;37.40;;;16.73;;
26181;SDS011;13927;51.534;11.866;2024-03-07T04:12:40;36.08;;;16.65;;
26181;SDS011;13927;51.534;11.866;2024-03-07T04:15:07;38.78;;;15.85;;
26181;SDS011;13927;51.534;11.866;2024-03-07T04:17:41;31.23;;;16.03;;
26181;SDS011;13927;51.534;11.866;2024-03-07T04:20:09;44.03;;;16.48;;
26181;SDS011;13927;51.534;11.866;2024-03-07T04:22:36;34.47;;;15.75;;
26181;SDS011;13927;51.534;11.866;2024-03-07T04:25:05;42.17;;;17.70;;
26181;SDS011;13927;51.534;11.866;2024-03-07T04:27:33;35.58;;;17.95;;
26181;SDS011;13927;51.534;11.866;2024-03-07T04:30:05;38.90;;;17.77;;
26181;SDS011;13927;51.534;11.866;2024-03-07T04:32:33;39.10;;;16.67;;
26181;SDS011;13927;51.534;11.866;2024-03-07T04:35:02;42.55;;;18.08;;
26181;SDS011;13927;51.534;11.866;2024-03-07T04:37:33;47.72;;;19.13;;
26181;SDS011;13927;51.534;11.866;2024-03-07T04:40:03;44.40;;;18.50;;
26181;SDS011;13927;51.534;11.866;2024-03-07T04:42:43;52.35;;;21.00;;
26181;SDS011;13927;51.534;11.866;2024-03-07T04:45:20;50.05;;;18.30;;
26181;SDS011;13927;51.534;11.866;2024-03-07T04:47:46;55.13;;;22.52;;
26181;SDS011;13927;51.534;11.866;2024-03-07T04:50:12;59.38;;;21.17;;
26181;SDS011;13927;51.534;11.866;2024-03-07T04:52:42;54.83;;;22.35;;
26181;SDS011;13927;51.534;11.866;2024-03-07T04:55:08;56.83;;;22.80;;
26181;SDS011;13927;51.534;11.866;2024-03-07T04:57:38;54.47;;;20.88;;
26181;SDS011;13927;51.534;11.866;2024-03-07T05:00:09;58.10;;;22.80;;
26181;SDS011;13927;51.534;11.866;2024-03-07T05:02:44;60.17;;;23.08;;
26181;SDS011;13927;51.534;11.866;2024-03-07T05:05:12;65.70;;;25.25;;
26181;SDS011;13927;51.534;11.866;2024-03-07T05:07:38;56.88;;;23.00;;
26181;SDS011;13927;51.534;11.866;2024-03-07T05:10:07;51.53;;;21.23;;
26181;SDS011;13927;51.534;11.866;2024-03-07T05:12:33;58.58;;;23.48;;
26181;SDS011;13927;51.534;11.866;2024-03-07T05:14:59;57.00;;;22.95;;
26181;SDS011;13927;51.534;11.866;2024-03-07T05:17:25;63.72;;;26.30;;
26181;SDS011;13927;51.534;11.866;2024-03-07T05:19:51;53.13;;;22.83;;
26181;SDS011;13927;51.534;11.866;2024-03-07T05:22:16;66.18;;;25.33;;
26181;SDS011;13927;51.534;11.866;2024-03-07T05:24:45;58.83;;;22.60;;
26181;SDS011;13927;51.534;11.866;2024-03-07T05:27:16;60.45;;;23.95;;
26181;SDS011;13927;51.534;11.866;2024-03-07T05:29:42;56.45;;;23.35;;
26181;SDS011;13927;51.534;11.866;2024-03-07T05:32:24;61.72;;;24.73;;
26181;SDS011;13927;51.534;11.866;2024-03-07T05:34:51;39.35;;;18.55;;
26181;SDS011;13927;51.534;11.866;2024-03-07T05:37:20;49.90;;;21.92;;
26181;SDS011;13927;51.534;11.866;2024-03-07T05:39:50;55.10;;;22.08;;
26181;SDS011;13927;51.534;11.866;2024-03-07T05:42:17;55.40;;;22.50;;
26181;SDS011;13927;51.534;11.866;2024-03-07T05:44:45;58.90;;;23.42;;
26181;SDS011;13927;51.534;11.866;2024-03-07T05:47:11;51.45;;;23.08;;
26181;SDS011;13927;51.534;11.866;2024-03-07T05:49:38;53.50;;;21.83;;
26181;SDS011;13927;51.534;11.866;2024-03-07T05:52:10;55.92;;;25.17;;
26181;SDS011;13927;51.534;11.866;2024-03-07T05:54:36;57.22;;;24.60;;
26181;SDS011;13927;51.534;11.866;2024-03-07T05:57:02;52.00;;;22.27;;
26181;SDS011;13927;51.534;11.866;2024-03-07T05:59:27;46.72;;;23.20;;
26181;SDS011;13927;51.534;11.866;2024-03-07T06:01:53;58.25;;;23.65;;
26181;SDS011;13927;51.534;11.866;2024-03-07T06:04:20;56.45;;;23.98;;
26181;SDS011;13927;51.534;11.866;2024-03-07T06:06:46;52.08;;;23.30;;
26181;SDS011;13927;51.534;11.866;2024-03-07T06:09:13;47.13;;;21.60;;
26181;SDS011;13927;51.534;11.866;2024-03-07T06:11:39;49.75;;;22.33;;
26181;SDS011;13927;51.534;11.866;2024-03-07T06:14:07;50.92;;;21.27;;
26181;SDS011;13927;51.534;11.866;2024-03-07T06:16:37;56.55;;;22.85;;
26181;SDS011;13927;51.534;11.866;2024-03-07T06:19:03;51.88;;;23.73;;
26181;SDS011;13927;51.534;11.866;2024-03-07T06:21:36;50.75;;;22.13;;
26181;SDS011;13927;51.534;11.866;2024-03-07T06:24:04;43.35;;;21.45;;
26181;SDS011;13927;51.534;11.866;2024-03-07T06:26:32;48.83;;;21.98;;
26181;SDS011;13927;51.534;11.866;2024-03-07T06:29:13;48.92;;;21.50;;
26181;SDS011;13927;51.534;11.866;2024-03-07T06:31:43;48.55;;;21.77;;
26181;SDS011;13927;51.534;11.866;2024-03-07T06:34:13;53.50;;;21.98;;
26181;SDS011;13927;51.534;11.866;2024-03-07T06:36:39;51.95;;;23.55;;
26181;SDS011;13927;51.534;11.866;2024-03-07T06:39:05;49.97;;;21.75;;
26181;SDS011;13927;51.534;11.866;2024-03-07T06:41:37;50.45;;;22.55;;
26181;SDS011;13927;51.534;11.866;2024-03-07T06:44:04;46.50;;;22.00;;
26181;SDS011;13927;51.534;11.866;2024-03-07T06:46:30;49.47;;;22.30;;
26181;SDS011;13927;51.534;11.866;2024-03-07T06:48:59;49.28;;;21.45;;
26181;SDS011;13927;51.534;11.866;2024-03-07T06:51:25;40.60;;;19.58;;
26181;SDS011;13927;51.534;11.866;2024-03-07T06:53:50;57.00;;;22.75;;
26181;SDS011;13927;51.534;11.866;2024-03-07T06:56:16;49.97;;;22.00;;
26181;SDS011;13927;51.534;11.866;2024-03-07T06:58:45;48.28;;;21.60;;
26181;SDS011;13927;51.534;11.866;2024-03-07T07:01:12;47.00;;;21.17;;
26181;SDS011;13927;51.534;11.866;2024-03-07T07:03:40;48.92;;;20.88;;
26181;SDS011;13927;51.534;11.866;2024-03-07T07:06:11;46.05;;;22.75;;
26181;SDS011;13927;51.534;11.866;2024-03-07T07:08:37;43.78;;;20.65;;
26181;SDS011;13927;51.534;11.866;2024-03-07T07:11:03;44.33;;;20.98;;
26181;SDS011;13927;51.534;11.866;2024-03-07T07:13:28;48.88;;;21.73;;
26181;SDS011;13927;51.534;11.866;2024-03-07T07:15:55;44.17;;;21.67;;
26181;SDS011;13927;51.534;11.866;2024-03-07T07:18:21;46.55;;;20.52;;
26181;SDS011;13927;51.534;11.866;2024-03-07T07:20:48;40.17;;;19.77;;
26181;SDS011;13927;51.534;11.866;2024-03-07T07:23:16;41.00;;;19.60;;
26181;SDS011;13927;51.534;11.866;2024-03-07T07:25:43;47.67;;;20.60;;
26181;SDS011;13927;51.534;11.866;2024-03-07T07:28:09;37.92;;;17.90;;
26181;SDS011;13927;51.534;11.866;2024-03-07T07:30:36;36.30;;;18.10;;
26181;SDS011;13927;51.534;11.866;2024-03-07T07:33:02;42.03;;;19.58;;
26181;SDS011;13927;51.534;11.866;2024-03-07T07:35:28;38.97;;;19.90;;
26181;SDS011;13927;51.534;11.866;2024-03-07T07:37:54;48.83;;;21.42;;
26181;SDS011;13927;51.534;11.866;2024-03-07T07:40:20;40.88;;;19.48;;
26181;SDS011;13927;51.534;11.866;2024-03-07T07:42:49;38.72;;;19.08;;
26181;SDS011;13927;51.534;11.866;2024-03-07T07:45:17;40.70;;;19.88;;
26181;SDS011;13927;51.534;11.866;2024-03-07T07:47:48;35.00;;;18.10;;
26181;SDS011;13927;51.534;11.866;2024-03-07T07:50:19;39.28;;;17.70;;
26181;SDS011;13927;51.534;11.866;2024-03-07T07:52:51;38.10;;;18.67;;
26181;SDS011;13927;51.534;11.866;2024-03-07T07:55:29;37.70;;;18.15;;
26181;SDS011;13927;51.534;11.866;2024-03-07T07:57:56;38.58;;;19.40;;
26181;SDS011;13927;51.534;11.866;2024-03-07T08:00:24;38.33;;;18.95;;
26181;SDS011;13927;51.534;11.866;2024-03-07T08:03:00;30.77;;;17.08;;
26181;SDS011;13927;51.534;11.866;2024-03-07T08:05:32;34.65;;;16.20;;
26181;SDS011;13927;51.534;11.866;2024-03-07T08:08:04;33.47;;;16.73;;
26181;SDS011;13927;51.534;11.866;2024-03-07T08:10:36;32.53;;;15.60;;
26181;SDS011;13927;51.534;11.866;2024-03-07T08:13:03;27.13;;;13.43;;
26181;SDS011;13927;51.534;11.866;2024-03-07T08:15:38;24.75;;;12.07;;
26181;SDS011;13927;51.534;11.866;2024-03-07T08:18:09;20.63;;;11.07;;
26181;SDS011;13927;51.534;11.866;2024-03-07T08:20:36;21.25;;;10.05;;
26181;SDS011;13927;51.534;11.866;2024-03-07T08:23:02;20.40;;;9.70;;
26181;SDS011;13927;51.534;11.866;2024-03-07T08:25:28;17.60;;;9.50;;
26181;SDS011;13927;51.534;11.866;2024-03-07T08:27:54;19.98;;;9.02;;
26181;SDS011;13927;51.534;11.866;2024-03-07T08:30:23;17.67;;;10.10;;
26181;SDS011;13927;51.534;11.866;2024-03-07T08:32:53;18.10;;;10.13;;
26181;SDS011;13927;51.534;11.866;2024-03-07T08:35:20;18.02;;;9.35;;
26181;SDS011;13927;51.534;11.866;2024-03-07T08:37:47;21.10;;;9.20;;
26181;SDS011;13927;51.534;11.866;2024-03-07T08:40:17;12.90;;;8.10;;
26181;SDS011;13927;51.534;11.866;2024-03-07T08:42:45;18.80;;;9.20;;
26181;SDS011;13927;51.534;11.866;2024-03-07T08:45:16;15.63;;;8.75;;
26181;SDS011;13927;51.534;11.866;2024-03-07T08:47:44;19.20;;;9.30;;
26181;SDS011;13927;51.534;11.866;2024-03-07T08:50:11;17.25;;;9.23;;
26181;SDS011;13927;51.534;11.866;2024-03-07T08:52:38;13.45;;;7.45;;
26181;SDS011;13927;51.534;11.866;2024-03-07T08:55:05;17.63;;;8.35;;
26181;SDS011;13927;51.534;11.866;2024-03-07T08:57:34;15.07;;;8.10;;
26181;SDS011;13927;51.534;11.866;2024-03-07T09:00:04;15.50;;;7.18;;
26181;SDS011;13927;51.534;11.866;2024-03-07T09:02:35;11.88;;;6.55;;
26181;SDS011;13927;51.534;11.866;2024-03-07T09:05:04;12.77;;;6.90;;
26181;SDS011;13927;51.534;11.866;2024-03-07T09:07:31;11.98;;;7.43;;
26181;SDS011;13927;51.534;11.866;2024-03-07T09:09:57;12.73;;;7.00;;
26181;SDS011;13927;51.534;11.866;2024-03-07T09:12:24;13.18;;;7.50;;
26181;SDS011;13927;51.534;11.866;2024-03-07T09:14:52;13.32;;;6.72;;
26181;SDS011;13927;51.534;11.866;2024-03-07T09:17:19;12.45;;;7.35;;
26181;SDS011;13927;51.534;11.866;2024-03-07T09:19:45;13.40;;;7.05;;
26181;SDS011;13927;51.534;11.866;2024-03-07T09:22:11;12.25;;;6.88;;
26181;SDS011;13927;51.534;11.866;2024-03-07T09:24:36;10.98;;;6.13;;
26181;SDS011;13927;51.534;11.866;2024-03-07T09:27:02;12.77;;;7.15;;
26181;SDS011;13927;51.534;11.866;2024-03-07T09:29:29;11.02;;;6.07;;
26181;SDS011;13927;51.534;11.866;2024-03-07T09:31:55;12.00;;;6.82;;
26181;SDS011;13927;51.534;11.866;2024-03-07T09:34:22;15.20;;;7.20;;
26181;SDS011;13927;51.534;11.866;2024-03-07T09:36:49;13.80;;;7.57;;
26181;SDS011;13927;51.534;11.866;2024-03-07T09:39:16;14.43;;;7.43;;
26181;SDS011;13927;51.534;11.866;2024-03-07T09:41:43;14.82;;;8.07;;
26181;SDS011;13927;51.534;11.866;2024-03-07T09:44:09;15.25;;;7.40;;
26181;SDS011;13927;51.534;11.866;2024-03-07T09:46:41;11.00;;;6.35;;
26181;SDS011;13927;51.534;11.866;2024-03-07T09:49:09;13.00;;;7.30;;
26181;SDS011;13927;51.534;11.866;2024-03-07T09:51:37;13.65;;;7.68;;
26181;SDS011;13927;51.534;11.866;2024-03-07T09:54:03;12.25;;;7.07;;
26181;SDS011;13927;51.534;11.866;2024-03-07T09:56:33;11.25;;;6.75;;
26181;SDS011;13927;51.534;11.866;2024-03-07T09:59:03;10.43;;;6.35;;
26181;SDS011;13927;51.534;11.866;2024-03-07T10:01:33;11.77;;;6.32;;
26181;SDS011;13927;51.534;11.866;2024-03-07T10:04:00;14.82;;;8.07;;
26181;SDS011;13927;51.534;11.866;2024-03-07T10:06:35;13.68;;;7.72;;
26181;SDS011;13927;51.534;11.866;2024-03-07T10:09:01;13.68;;;6.82;;
26181;SDS011;13927;51.534;11.866;2024-03-07T10:11:28;12.68;;;7.05;;
26181;SDS011;13927;51.534;11.866;2024-03-07T10:13:54;14.02;;;7.82;;
26181;SDS011;13927;51.534;11.866;2024-03-07T10:16:20;11.68;;;7.35;;
26181;SDS011;13927;51.534;11.866;2024-03-07T10:18:46;14.10;;;7.15;;
26181;SDS011;13927;51.534;11.866;2024-03-07T10:21:14;11.43;;;6.97;;
26181;SDS011;13927;51.534;11.866;2024-03-07T10:23:44;14.73;;;7.13;;
26181;SDS011;13927;51.534;11.866;2024-03-07T10:26:09;13.13;;;8.15;;
26181;SDS011;13927;51.534;11.866;2024-03-07T10:28:35;14.70;;;7.28;;
26181;SDS011;13927;51.534;11.866;2024-03-07T10:31:03;11.05;;;6.75;;
26181;SDS011;13927;51.534;11.866;2024-03-07T10:33:34;13.02;;;7.63;;
26181;SDS011;13927;51.534;11.866;2024-03-07T10:36:03;10.30;;;6.85;;
26181;SDS011;13927;51.534;11.866;2024-03-07T10:38:36;15.15;;;7.88;;
26181;SDS011;13927;51.534;11.866;2024-03-07T10:41:05;14.73;;;6.68;;
26181;SDS011;13927;51.534;11.866;2024-03-07T10:43:33;15.70;;;7.55;;
26181;SDS011;13927;51.534;11.866;2024-03-07T10:46:05;12.75;;;6.72;;
26181;SDS011;13927;51.534;11.866;2024-03-07T10:48:38;11.20;;;6.25;;
26181;SDS011;13927;51.534;11.866;2024-03-07T10:51:17;11.68;;;7.22;;
26181;SDS011;13927;51.534;11.866;2024-03-07T10:56:39;10.70;;;6.30;;
26181;SDS011;13927;51.534;11.866;2024-03-07T10:59:37;13.93;;;6.95;;
26181;SDS011;13927;51.534;11.866;2024-03-07T11:04:49;11.02;;;6.72;;
26181;SDS011;13927;51.534;11.866;2024-03-07T11:07:22;13.63;;;7.13;;
26181;SDS011;13927;51.534;11.866;2024-03-07T11:09:52;13.55;;;7.32;;
26181;SDS011;13927;51.534;11.866;2024-03-07T11:12:21;15.43;;;8.35;;
26181;SDS011;13927;51.534;11.866;2024-03-07T11:14:50;14.23;;;7.43;;
26181;SDS011;13927;51.534;11.866;2024-03-07T11:17:17;11.38;;;6.60;;
26181;SDS011;13927;51.534;11.866;2024-03-07T11:19:44;12.90;;;7.15;;
26181;SDS011;13927;51.534;11.866;2024-03-07T11:22:10;11.80;;;6.88;;
26181;SDS011;13927;51.534;11.866;2024-03-07T11:24:48;13.23;;;6.75;;
26181;SDS011;13927;51.534;11.866;2024-03-07T11:27:32;11.30;;;7.05;;
26181;SDS011;13927;51.534;11.866;2024-03-07T11:30:10;11.35;;;6.70;;
26181;SDS011;13927;51.534;11.866;2024-03-07T11:32:39;12.18;;;6.78;;
26181;SDS011;13927;51.534;11.866;2024-03-07T11:35:16;12.00;;;6.93;;
26181;SDS011;13927;51.534;11.866;2024-03-07T11:37:50;13.48;;;6.60;;
26181;SDS011;13927;51.534;11.866;2024-03-07T11:42:49;12.65;;;6.38;;
26181;SDS011;13927;51.534;11.866;2024-03-07T11:45:17;12.18;;;6.32;;
26181;SDS011;13927;51.534;11.866;2024-03-07T11:47:50;10.63;;;6.45;;
26181;SDS011;13927;51.534;11.866;2024-03-07T11:50:34;11.27;;;6.65;;
26181;SDS011;13927;51.534;11.866;2024-03-07T11:53:01;10.68;;;6.13;;
26181;SDS011;13927;51.534;11.866;2024-03-07T11:55:31;12.68;;;6.32;;
26181;SDS011;13927;51.534;11.866;2024-03-07T11:58:06;13.15;;;6.97;;
26181;SDS011;13927;51.534;11.866;2024-03-07T12:00:43;11.50;;;7.03;;
26181;SDS011;13927;51.534;11.866;2024-03-07T12:03:16;10.95;;;6.45;;
26181;SDS011;13927;51.534;11.866;2024-03-07T12:05:47;13.98;;;7.35;;
26181;SDS011;13927;51.534;11.866;2024-03-07T12:08:13;13.05;;;7.82;;
26181;SDS011;13927;51.534;11.866;2024-03-07T12:10:40;12.75;;;7.32;;
26181;SDS011;13927;51.534;11.866;2024-03-07T12:13:09;12.32;;;7.28;;
26181;SDS011;13927;51.534;11.866;2024-03-07T12:15:42;12.43;;;6.70;;
26181;SDS011;13927;51.534;11.866;2024-03-07T12:18:14;11.88;;;6.25;;
26181;SDS011;13927;51.534;11.866;2024-03-07T12:20:42;10.73;;;6.25;;
26181;SDS011;13927;51.534;11.866;2024-03-07T12:23:15;12.60;;;7.35;;
26181;SDS011;13927;51.534;11.866;2024-03-07T12:25:59;9.52;;;5.93;;
26181;SDS011;13927;51.534;11.866;2024-03-07T12:28:27;13.38;;;6.85;;
26181;SDS011;13927;51.534;11.866;2024-03-07T12:30:53;14.32;;;7.65;;
26181;SDS011;13927;51.534;11.866;2024-03-07T12:33:21;12.52;;;7.22;;
26181;SDS011;13927;51.534;11.866;2024-03-07T12:35:51;12.07;;;6.82;;
26181;SDS011;13927;51.534;11.866;2024-03-07T12:38:21;13.50;;;7.22;;
26181;SDS011;13927;51.534;11.866;2024-03-07T12:41:01;13.13;;;7.50;;
26181;SDS011;13927;51.534;11.866;2024-03-07T12:43:33;11.95;;;6.53;;
26181;SDS011;13927;51.534;11.866;2024-03-07T12:45:59;15.55;;;7.45;;
26181;SDS011;13927;51.534;11.866;2024-03-07T12:48:25;11.80;;;6.50;;
26181;SDS011;13927;51.534;11.866;2024-03-07T12:50:51;11.43;;;7.15;;
26181;SDS011;13927;51.534;11.866;2024-03-07T12:53:20;12.48;;;7.18;;
26181;SDS011;13927;51.534;11.866;2024-03-07T12:55:53;13.07;;;7.68;;
26181;SDS011;13927;51.534;11.866;2024-03-07T12:58:19;11.63;;;7.13;;
26181;SDS011;13927;51.534;11.866;2024-03-07T13:00:50;15.13;;;7.72;;
26181;SDS011;13927;51.534;11.866;2024-03-07T13:03:16;15.80;;;8.50;;
26181;SDS011;13927;51.534;11.866;2024-03-07T13:05:42;13.45;;;8.02;;
26181;SDS011;13927;51.534;11.866;2024-03-07T13:08:11;15.73;;;8.10;;
26181;SDS011;13927;51.534;11.866;2024-03-07T13:10:43;11.40;;;7.75;;
26181;SDS011;13927;51.534;11.866;2024-03-07T13:13:10;13.73;;;8.07;;
26181;SDS011;13927;51.534;11.866;2024-03-07T13:15:36;12.60;;;7.25;;
26181;SDS011;13927;51.534;11.866;2024-03-07T13:18:03;15.45;;;8.23;;
26181;SDS011;13927;51.534;11.866;2024-03-07T13:20:33;13.70;;;8.45;;
26181;SDS011;13927;51.534;11.866;2024-03-07T13:23:00;12.25;;;7.38;;
26181;SDS011;13927;51.534;11.866;2024-03-07T13:25:26;12.23;;;7.90;;
26181;SDS011;13927;51.534;11.866;2024-03-07T13:27:56;13.23;;;8.60;;
26181;SDS011;13927;51.534;11.866;2024-03-07T13:30:26;14.90;;;8.70;;
26181;SDS011;13927;51.534;11.866;2024-03-07T13:32:52;13.02;;;8.25;;
26181;SDS011;13927;51.534;11.866;2024-03-07T13:35:20;12.98;;;8.68;;
26181;SDS011;13927;51.534;11.866;2024-03-07T13:37:46;12.68;;;7.93;;
26181;SDS011;13927;51.534;11.866;2024-03-07T13:40:13;15.13;;;7.53;;
26181;SDS011;13927;51.534;11.866;2024-03-07T13:42:49;15.30;;;9.13;;
26181;SDS011;13927;51.534;11.866;2024-03-07T13:45:22;12.35;;;6.97;;
26181;SDS011;13927;51.534;11.866;2024-03-07T13:47:56;13.23;;;8.77;;
26181;SDS011;13927;51.534;11.866;2024-03-07T13:50:24;12.70;;;8.38;;
26181;SDS011;13927;51.534;11.866;2024-03-07T13:52:53;14.75;;;8.23;;
26181;SDS011;13927;51.534;11.866;2024-03-07T13:55:32;12.77;;;7.97;;
26181;SDS011;13927;51.534;11.866;2024-03-07T14:13:49;14.68;;;7.93;;
26181;SDS011;13927;51.534;11.866;2024-03-07T14:23:23;14.63;;;8.32;;
26181;SDS011;13927;51.534;11.866;2024-03-07T14:32:56;12.75;;;7.57;;
26181;SDS011;13927;51.534;11.866;2024-03-07T14:35:39;12.52;;;7.82;;
26181;SDS011;13927;51.534;11.866;2024-03-07T14:41:10;12.50;;;7.30;;
26181;SDS011;13927;51.534;11.866;2024-03-07T14:43:39;11.88;;;7.53;;
26181;SDS011;13927;51.534;11.866;2024-03-07T14:46:11;12.82;;;7.32;;
26181;SDS011;13927;51.534;11.866;2024-03-07T14:48:40;12.57;;;7.68;;
26181;SDS011;13927;51.534;11.866;2024-03-07T14:51:07;13.52;;;8.05;;
26181;SDS011;13927;51.534;11.866;2024-03-07T14:53:34;11.15;;;7.07;;
26181;SDS011;13927;51.534;11.866;2024-03-07T14:56:00;14.07;;;8.43;;
26181;SDS011;13927;51.534;11.866;2024-03-07T14:58:26;11.00;;;7.38;;
26181;SDS011;13927;51.534;11.866;2024-03-07T15:00:51;12.57;;;7.18;;
26181;SDS011;13927;51.534;11.866;2024-03-07T15:03:19;12.30;;;7.47;;